Time;durP1;ratioP1;P1;durP2;ratioP2;P2;SDS_P1;SDS_P2;PMS_P1;PMS_P2;Temp;Humidity;BMP_temperature;BMP_pressure;BME280_temperature;BME280_humidity;BME280_pressure;Samples;Min_cycle;Max_cycle;Signal;HPM_P1;HPM_P2
2022/08/01 00:01:42;;;;;;;;;;;23.90;66.00;;;;;;4978431;28;19914;-87
2022/08/01 00:04:08;;;;;;;;;;;23.80;66.50;;;;;;4974074;28;19913;-87
2022/08/01 00:06:33;;;;;;;;;;;23.80;66.40;;;;;;4972328;28;20310;-87
2022/08/01 00:08:59;;;;;;;;;;;23.60;66.70;;;;;;4979669;28;20016;-86
2022/08/01 00:11:25;;;;;;;;;;;23.50;67.30;;;;;;4958307;28;19920;-86
2022/08/01 00:13:50;;;;;;;;;;;23.50;67.50;;;;;;4963107;28;19914;-87
2022/08/01 00:16:16;;;;;;;;;;;23.40;67.30;;;;;;4959771;28;19940;-86
2022/08/01 00:18:41;;;;;;;;;;;23.60;67.30;;;;;;4963997;28;19917;-85
2022/08/01 00:21:07;;;;;;;;;;;23.30;67.80;;;;;;4975151;28;19917;-86
2022/08/01 00:23:32;;;;;;;;;;;23.30;68.10;;;;;;4976141;28;19914;-86
2022/08/01 00:25:58;;;;;;;;;;;23.20;68.40;;;;;;4966564;28;19920;-87
2022/08/01 00:28:23;;;;;;;;;;;23.40;67.90;;;;;;4958090;28;19917;-86
2022/08/01 00:30:49;;;;;;;;;;;23.30;68.00;;;;;;4967326;28;19922;-87
2022/08/01 00:33:14;;;;;;;;;;;23.20;68.50;;;;;;4978895;28;19928;-86
2022/08/01 00:35:40;;;;;;;;;;;23.00;68.90;;;;;;4979123;28;19914;-87
2022/08/01 00:38:05;;;;;;;;;;;23.10;69.10;;;;;;4978957;28;19949;-86
2022/08/01 00:40:31;;;;;;;;;;;23.10;69.00;;;;;;4973676;28;19924;-85
2022/08/01 00:42:57;;;;;;;;;;;23.00;69.20;;;;;;4979755;28;19921;-86
2022/08/01 00:45:22;;;;;;;;;;;22.90;69.50;;;;;;4980112;28;19914;-86
2022/08/01 00:47:48;;;;;;;;;;;22.90;69.60;;;;;;4974265;28;20427;-86
2022/08/01 00:50:13;;;;;;;;;;;22.80;69.90;;;;;;4972817;28;19914;-85
2022/08/01 00:52:39;;;;;;;;;;;22.80;69.80;;;;;;4996429;28;19913;-86
2022/08/01 00:55:05;;;;;;;;;;;22.80;70.10;;;;;;4973116;28;19913;-85
2022/08/01 00:57:31;;;;;;;;;;;22.80;70.10;;;;;;4973433;28;20725;-84
2022/08/01 00:59:57;;;;;;;;;;;22.70;70.50;;;;;;4977594;28;19920;-87
2022/08/01 01:02:22;;;;;;;;;;;22.60;70.70;;;;;;4975676;28;19914;-86
2022/08/01 01:04:48;;;;;;;;;;;22.60;71.30;;;;;;4974785;28;20394;-86
2022/08/01 01:07:19;;;;;;;;;;;22.50;71.70;;;;;;4976695;28;20008;-87
2022/08/01 01:09:44;;;;;;;;;;;22.50;71.90;;;;;;4977054;28;19929;-85
2022/08/01 01:12:18;;;;;;;;;;;22.40;72.00;;;;;;4985083;28;19913;-85
2022/08/01 01:14:50;;;;;;;;;;;22.40;72.20;;;;;;4977492;28;19913;-86
2022/08/01 01:17:19;;;;;;;;;;;22.40;72.40;;;;;;4975564;28;19913;-87
2022/08/01 01:19:47;;;;;;;;;;;22.30;72.40;;;;;;4978231;28;20051;-86
2022/08/01 01:22:26;;;;;;;;;;;22.30;72.50;;;;;;4980377;28;19920;-87
2022/08/01 01:25:04;;;;;;;;;;;22.30;72.60;;;;;;4970086;28;19914;-86
2022/08/01 01:27:35;;;;;;;;;;;22.30;73.30;;;;;;4977765;28;19917;-86
2022/08/01 01:30:01;;;;;;;;;;;22.20;72.80;;;;;;4975206;28;19960;-86
2022/08/01 01:32:33;;;;;;;;;;;22.20;72.90;;;;;;4978791;28;20025;-85
2022/08/01 01:35:00;;;;;;;;;;;22.10;73.10;;;;;;4980288;28;20000;-86
2022/08/01 01:37:26;;;;;;;;;;;22.00;73.70;;;;;;4979341;28;19996;-87
2022/08/01 01:39:52;;;;;;;;;;;22.10;73.60;;;;;;4981142;28;19949;-85
2022/08/01 01:42:19;;;;;;;;;;;22.00;73.80;;;;;;4975127;28;20379;-85
2022/08/01 01:44:45;;;;;;;;;;;22.00;74.00;;;;;;4958419;28;20417;-87
2022/08/01 01:47:14;;;;;;;;;;;22.00;74.40;;;;;;4976988;28;19914;-85
2022/08/01 01:49:41;;;;;;;;;;;21.90;74.70;;;;;;4961109;28;19928;-86
2022/08/01 01:52:08;;;;;;;;;;;21.80;75.00;;;;;;4981742;28;19917;-86
2022/08/01 01:54:35;;;;;;;;;;;21.80;75.30;;;;;;4975194;28;19914;-86
2022/08/01 01:57:03;;;;;;;;;;;21.70;75.70;;;;;;4983826;28;19925;-86
2022/08/01 01:59:31;;;;;;;;;;;21.70;75.90;;;;;;4969073;28;20481;-87
2022/08/01 02:01:58;;;;;;;;;;;21.70;76.00;;;;;;4982868;28;20011;-86
2022/08/01 02:04:24;;;;;;;;;;;21.70;76.30;;;;;;4976796;28;20003;-86
2022/08/01 02:06:51;;;;;;;;;;;21.50;76.50;;;;;;4977713;28;19914;-85
2022/08/01 02:09:18;;;;;;;;;;;21.70;76.50;;;;;;4977319;28;19922;-86
2022/08/01 02:11:44;;;;;;;;;;;21.50;76.80;;;;;;4984640;28;19937;-86
2022/08/01 02:14:11;;;;;;;;;;;21.60;76.90;;;;;;4983756;28;20047;-86
2022/08/01 02:16:39;;;;;;;;;;;21.50;77.00;;;;;;4979889;28;19914;-85
2022/08/01 02:19:04;;;;;;;;;;;21.50;77.20;;;;;;4983738;28;19913;-86
2022/08/01 02:21:32;;;;;;;;;;;21.40;77.50;;;;;;4984733;28;19920;-87
2022/08/01 02:24:08;;;;;;;;;;;21.40;77.90;;;;;;4983481;28;20378;-86
2022/08/01 02:26:34;;;;;;;;;;;21.30;78.40;;;;;;4984704;28;19918;-86
2022/08/01 02:29:02;;;;;;;;;;;21.30;78.30;;;;;;4981461;28;19921;-86
2022/08/01 02:31:29;;;;;;;;;;;21.20;78.80;;;;;;4980187;28;20021;-86
2022/08/01 02:34:01;;;;;;;;;;;21.20;78.80;;;;;;4980074;28;19964;-84
2022/08/01 02:36:28;;;;;;;;;;;21.20;79.00;;;;;;4983772;28;20302;-86
2022/08/01 02:38:55;;;;;;;;;;;21.20;79.10;;;;;;4977764;28;19921;-86
2022/08/01 02:41:21;;;;;;;;;;;21.20;79.00;;;;;;4979684;28;19913;-86
2022/08/01 02:43:49;;;;;;;;;;;21.30;79.20;;;;;;4964259;28;19925;-86
2022/08/01 02:46:21;;;;;;;;;;;21.20;79.60;;;;;;4974758;28;19914;-85
2022/08/01 02:48:47;;;;;;;;;;;21.10;79.90;;;;;;4960373;28;19968;-86
2022/08/01 02:51:14;;;;;;;;;;;21.10;80.50;;;;;;4983947;28;19914;-86
2022/08/01 02:53:41;;;;;;;;;;;21.00;80.60;;;;;;4964624;28;19988;-86
2022/08/01 02:56:08;;;;;;;;;;;21.00;81.10;;;;;;4980150;28;20732;-86
2022/08/01 02:58:34;;;;;;;;;;;20.90;81.80;;;;;;4979155;28;19921;-86
2022/08/01 03:01:00;;;;;;;;;;;20.90;81.70;;;;;;4979215;28;19913;-87
2022/08/01 03:03:26;;;;;;;;;;;20.90;81.70;;;;;;4982292;28;20384;-86
2022/08/01 03:05:51;;;;;;;;;;;20.90;81.90;;;;;;4977402;28;19917;-86
2022/08/01 03:08:18;;;;;;;;;;;20.90;81.90;;;;;;4983150;28;20540;-86
2022/08/01 03:10:45;;;;;;;;;;;20.80;82.30;;;;;;4978711;28;19972;-86
2022/08/01 03:13:12;;;;;;;;;;;20.90;82.30;;;;;;4964912;28;20010;-86
2022/08/01 03:15:38;;;;;;;;;;;20.80;82.70;;;;;;4977558;28;19913;-86
2022/08/01 03:18:06;;;;;;;;;;;20.80;82.90;;;;;;4960917;28;19968;-86
2022/08/01 03:20:34;;;;;;;;;;;20.80;83.10;;;;;;4963772;28;19950;-86
2022/08/01 03:23:03;;;;;;;;;;;20.70;82.80;;;;;;4979274;28;19914;-87
2022/08/01 03:25:29;;;;;;;;;;;20.80;82.40;;;;;;4983827;28;19987;-86
2022/08/01 03:27:56;;;;;;;;;;;20.80;82.80;;;;;;4981671;28;20382;-86
2022/08/01 03:30:23;;;;;;;;;;;20.80;83.40;;;;;;4980943;28;20397;-86
2022/08/01 03:32:49;;;;;;;;;;;20.70;83.60;;;;;;4955315;28;20035;-86
2022/08/01 03:35:14;;;;;;;;;;;20.70;84.00;;;;;;4982057;28;20409;-85
2022/08/01 03:37:45;;;;;;;;;;;20.60;84.30;;;;;;4980947;28;20354;-87
2022/08/01 03:40:17;;;;;;;;;;;20.60;84.40;;;;;;4979889;28;19996;-87
2022/08/01 03:42:47;;;;;;;;;;;20.60;84.60;;;;;;4975942;28;19921;-87
2022/08/01 03:45:19;;;;;;;;;;;20.60;84.50;;;;;;4982851;28;19913;-87
2022/08/01 03:47:46;;;;;;;;;;;20.60;84.70;;;;;;4980437;28;19921;-86
2022/08/01 03:50:13;;;;;;;;;;;20.60;84.70;;;;;;4971657;28;19921;-86
2022/08/01 03:52:41;;;;;;;;;;;20.50;85.00;;;;;;4979260;28;19976;-87
2022/08/01 03:55:07;;;;;;;;;;;20.50;86.00;;;;;;4977027;28;19920;-86
2022/08/01 03:57:33;;;;;;;;;;;20.40;85.70;;;;;;4979955;28;20033;-86
2022/08/01 03:59:59;;;;;;;;;;;20.40;86.30;;;;;;4983545;28;19993;-86
2022/08/01 04:02:26;;;;;;;;;;;20.20;87.20;;;;;;4980484;28;19968;-85
2022/08/01 04:04:51;;;;;;;;;;;20.20;87.90;;;;;;4953184;28;19925;-86
2022/08/01 04:07:28;;;;;;;;;;;20.20;88.40;;;;;;4980768;28;20307;-85
2022/08/01 04:09:53;;;;;;;;;;;20.10;88.80;;;;;;4981897;28;20355;-83
2022/08/01 04:12:19;;;;;;;;;;;20.10;89.50;;;;;;4983052;28;19920;-82
2022/08/01 04:14:45;;;;;;;;;;;20.40;90.00;;;;;;4982428;28;20339;-82
2022/08/01 04:17:11;;;;;;;;;;;20.30;90.20;;;;;;4958291;28;20516;-84
2022/08/01 04:19:36;;;;;;;;;;;20.10;91.30;;;;;;4979190;28;19913;-83
2022/08/01 04:22:02;;;;;;;;;;;19.70;92.00;;;;;;4979520;28;20662;-83
2022/08/01 04:24:29;;;;;;;;;;;19.70;92.40;;;;;;4982598;28;19936;-83
2022/08/01 04:26:56;;;;;;;;;;;19.70;92.70;;;;;;4980563;28;20391;-82
2022/08/01 04:29:22;;;;;;;;;;;19.80;92.70;;;;;;4977860;28;19922;-82
2022/08/01 04:31:49;;;;;;;;;;;19.80;92.90;;;;;;4981350;28;19964;-83
2022/08/01 04:34:16;;;;;;;;;;;19.70;93.30;;;;;;4956980;28;20008;-83
2022/08/01 04:36:42;;;;;;;;;;;19.70;93.70;;;;;;4984056;28;20439;-83
2022/08/01 04:39:08;;;;;;;;;;;19.60;94.00;;;;;;4981106;28;20836;-82
2022/08/01 04:41:35;;;;;;;;;;;19.70;94.00;;;;;;4983438;28;19921;-82
2022/08/01 04:44:02;;;;;;;;;;;19.60;94.40;;;;;;4978762;28;19988;-83
2022/08/01 04:46:28;;;;;;;;;;;19.60;94.50;;;;;;4979122;28;20758;-81
2022/08/01 04:48:57;;;;;;;;;;;19.60;94.60;;;;;;4962999;28;19968;-82
2022/08/01 04:51:22;;;;;;;;;;;19.60;94.80;;;;;;4978020;28;19921;-83
2022/08/01 04:53:50;;;;;;;;;;;19.80;94.30;;;;;;4974026;28;19914;-83
2022/08/01 04:56:16;;;;;;;;;;;19.80;94.20;;;;;;4982505;28;20396;-82
2022/08/01 04:58:42;;;;;;;;;;;19.60;95.50;;;;;;4977858;28;19918;-82
2022/08/01 05:01:08;;;;;;;;;;;19.40;96.40;;;;;;4978681;28;19918;-82
2022/08/01 05:03:33;;;;;;;;;;;19.80;95.80;;;;;;4971745;28;19913;-82
2022/08/01 05:05:59;;;;;;;;;;;20.10;94.70;;;;;;4980026;28;20011;-82
2022/08/01 05:08:24;;;;;;;;;;;20.60;92.90;;;;;;4974903;28;19945;-82
2022/08/01 05:10:50;;;;;;;;;;;20.80;92.20;;;;;;4981926;28;20027;-84
2022/08/01 05:13:15;;;;;;;;;;;21.30;90.70;;;;;;4982461;28;19936;-85
2022/08/01 05:15:41;;;;;;;;;;;22.10;87.10;;;;;;4984737;28;20382;-85
2022/08/01 05:18:06;;;;;;;;;;;22.50;85.30;;;;;;4977867;28;20489;-85
2022/08/01 05:20:32;;;;;;;;;;;22.70;83.80;;;;;;4980164;28;19934;-86
2022/08/01 05:22:57;;;;;;;;;;;23.00;82.30;;;;;;4984649;28;20433;-86
2022/08/01 05:25:23;;;;;;;;;;;23.30;81.40;;;;;;4985919;28;20036;-87
2022/08/01 05:27:48;;;;;;;;;;;23.40;81.50;;;;;;4962789;28;19917;-85
2022/08/01 05:30:14;;;;;;;;;;;23.80;79.40;;;;;;4975203;28;19917;-87
2022/08/01 05:32:40;;;;;;;;;;;24.00;78.20;;;;;;4967742;28;20824;-86
2022/08/01 05:35:06;;;;;;;;;;;24.50;76.10;;;;;;4976139;28;19914;-87
2022/08/01 05:37:32;;;;;;;;;;;24.70;75.00;;;;;;4981577;28;20046;-87
2022/08/01 05:39:57;;;;;;;;;;;24.80;74.20;;;;;;4961242;28;20371;-86
2022/08/01 05:42:23;;;;;;;;;;;25.10;73.70;;;;;;4983560;28;19921;-85
2022/08/01 05:44:50;;;;;;;;;;;25.10;73.10;;;;;;4985967;28;19917;-86
2022/08/01 05:47:16;;;;;;;;;;;25.70;71.90;;;;;;4982748;28;19914;-86
2022/08/01 05:49:41;;;;;;;;;;;25.50;71.90;;;;;;4986929;28;20436;-87
2022/08/01 05:52:07;;;;;;;;;;;25.80;70.50;;;;;;4988049;28;19910;-88
2022/08/01 05:54:33;;;;;;;;;;;26.00;69.70;;;;;;4987430;28;20482;-88
2022/08/01 05:57:01;;;;;;;;;;;26.20;68.80;;;;;;4969756;28;19914;-88
2022/08/01 05:59:27;;;;;;;;;;;26.50;68.60;;;;;;4987411;28;19910;-87
2022/08/01 06:01:53;;;;;;;;;;;26.90;67.50;;;;;;4985797;28;20809;-88
2022/08/01 06:04:19;;;;;;;;;;;27.20;66.90;;;;;;4987110;28;19920;-86
2022/08/01 06:06:44;;;;;;;;;;;27.30;66.30;;;;;;4966421;28;21228;-87
2022/08/01 06:09:10;;;;;;;;;;;27.50;65.20;;;;;;4986951;28;20406;-87
2022/08/01 06:11:35;;;;;;;;;;;27.60;65.80;;;;;;4987171;28;20573;-88
2022/08/01 06:14:01;;;;;;;;;;;27.70;64.80;;;;;;4987651;28;19956;-87
2022/08/01 06:16:26;;;;;;;;;;;27.90;64.80;;;;;;4987906;28;19933;-87
2022/08/01 06:18:52;;;;;;;;;;;28.30;63.50;;;;;;4987239;28;19914;-86
2022/08/01 06:21:17;;;;;;;;;;;28.10;63.10;;;;;;4986508;28;19956;-86
2022/08/01 06:23:43;;;;;;;;;;;28.70;62.60;;;;;;4978627;28;19917;-86
2022/08/01 06:26:09;;;;;;;;;;;28.40;62.90;;;;;;4986306;28;19934;-86
2022/08/01 06:28:35;;;;;;;;;;;28.80;62.20;;;;;;4986984;28;19932;-87
2022/08/01 06:31:00;;;;;;;;;;;28.50;62.50;;;;;;4987180;28;19921;-87
2022/08/01 06:33:26;;;;;;;;;;;28.30;62.40;;;;;;4986879;28;19910;-86
2022/08/01 06:35:52;;;;;;;;;;;28.60;62.00;;;;;;4987571;28;19940;-87
2022/08/01 06:38:17;;;;;;;;;;;29.10;60.60;;;;;;4987153;28;20358;-87
2022/08/01 06:40:43;;;;;;;;;;;28.80;61.20;;;;;;4986093;28;20378;-87
2022/08/01 06:43:11;;;;;;;;;;;29.60;60.00;;;;;;4986513;28;20004;-86
2022/08/01 06:45:36;;;;;;;;;;;29.60;59.30;;;;;;4984964;28;19913;-88
2022/08/01 06:48:02;;;;;;;;;;;29.50;59.60;;;;;;4986407;28;19921;-87
2022/08/01 06:50:28;;;;;;;;;;;30.00;58.30;;;;;;4986854;28;20052;-88
2022/08/01 06:52:53;;;;;;;;;;;30.50;58.00;;;;;;4979654;28;20438;-87
2022/08/01 06:55:19;;;;;;;;;;;31.00;57.10;;;;;;4985286;28;19918;-87
2022/08/01 06:57:51;;;;;;;;;;;31.70;56.00;;;;;;4985667;28;19917;-88
2022/08/01 07:00:18;;;;;;;;;;;31.40;55.70;;;;;;4966730;28;19917;-87
2022/08/01 07:02:45;;;;;;;;;;;31.10;56.30;;;;;;4985698;28;20020;-87
2022/08/01 07:05:10;;;;;;;;;;;32.20;55.30;;;;;;4983732;28;20366;-88
2022/08/01 07:07:36;;;;;;;;;;;31.90;55.60;;;;;;4985197;28;19917;-86
2022/08/01 07:10:02;;;;;;;;;;;32.20;54.50;;;;;;4985629;28;19964;-87
2022/08/01 07:12:28;;;;;;;;;;;32.70;53.50;;;;;;4984751;28;19913;-87
2022/08/01 07:14:54;;;;;;;;;;;32.50;55.00;;;;;;4985225;28;19971;-87
2022/08/01 07:17:20;;;;;;;;;;;33.40;52.80;;;;;;4972211;28;19975;-88
2022/08/01 07:19:46;;;;;;;;;;;33.40;52.30;;;;;;4984757;28;19914;-88
2022/08/01 07:22:11;;;;;;;;;;;33.10;52.80;;;;;;4984242;28;19914;-87
2022/08/01 07:24:37;;;;;;;;;;;33.50;52.60;;;;;;4984427;28;19916;-88
2022/08/01 07:27:03;;;;;;;;;;;33.70;51.80;;;;;;4984628;28;19914;-87
2022/08/01 07:29:28;;;;;;;;;;;34.10;51.00;;;;;;4966985;28;19968;-88
2022/08/01 07:31:55;;;;;;;;;;;34.00;50.80;;;;;;4983849;28;19918;-88
2022/08/01 07:34:21;;;;;;;;;;;34.30;51.70;;;;;;4983750;28;19913;-86
2022/08/01 07:36:47;;;;;;;;;;;34.00;50.10;;;;;;4984069;28;19939;-86
2022/08/01 07:39:12;;;;;;;;;;;33.80;50.90;;;;;;4983918;28;19917;-86
2022/08/01 07:41:38;;;;;;;;;;;33.80;49.70;;;;;;4965837;28;19909;-87
2022/08/01 07:44:03;;;;;;;;;;;34.00;50.00;;;;;;4983492;28;20346;-87
2022/08/01 07:46:30;;;;;;;;;;;34.60;51.00;;;;;;4984299;28;19940;-88
2022/08/01 07:48:56;;;;;;;;;;;35.40;48.20;;;;;;4983903;28;19926;-86
2022/08/01 07:51:21;;;;;;;;;;;35.10;48.10;;;;;;4983685;28;20433;-87
2022/08/01 07:53:47;;;;;;;;;;;35.40;48.70;;;;;;4984009;28;19953;-88
2022/08/01 07:56:12;;;;;;;;;;;36.30;47.90;;;;;;4969698;28;19909;-88
2022/08/01 07:58:38;;;;;;;;;;;35.80;48.40;;;;;;4984029;28;19921;-88
2022/08/01 08:01:04;;;;;;;;;;;36.40;48.20;;;;;;4984364;28;19942;-87
2022/08/01 08:03:29;;;;;;;;;;;36.30;47.00;;;;;;4984560;28;19909;-87
2022/08/01 08:05:55;;;;;;;;;;;36.30;48.50;;;;;;4983887;28;20004;-87
2022/08/01 08:08:21;;;;;;;;;;;36.50;46.50;;;;;;4984089;28;19932;-87
2022/08/01 08:10:46;;;;;;;;;;;36.90;46.10;;;;;;4985264;28;19911;-87
2022/08/01 08:13:12;;;;;;;;;;;36.40;45.40;;;;;;4984697;28;20434;-87
2022/08/01 08:15:38;;;;;;;;;;;37.10;44.80;;;;;;4984950;28;19932;-87
2022/08/01 08:18:04;;;;;;;;;;;37.70;46.60;;;;;;4984187;28;20386;-87
2022/08/01 08:20:29;;;;;;;;;;;37.70;45.60;;;;;;4983857;28;19920;-87
2022/08/01 08:22:56;;;;;;;;;;;37.80;44.70;;;;;;4960351;28;20532;-87
2022/08/01 08:25:22;;;;;;;;;;;38.20;45.30;;;;;;4984191;28;19917;-87
2022/08/01 08:27:47;;;;;;;;;;;37.80;44.40;;;;;;4984845;28;19914;-87
2022/08/01 08:30:13;;;;;;;;;;;38.80;44.50;;;;;;4984512;28;20375;-87
2022/08/01 08:32:40;;;;;;;;;;;38.30;43.60;;;;;;4984082;28;20391;-86
2022/08/01 08:35:06;;;;;;;;;;;38.80;43.50;;;;;;4983867;28;19916;-87
2022/08/01 08:37:32;;;;;;;;;;;39.20;42.90;;;;;;4984512;28;19914;-87
2022/08/01 08:39:57;;;;;;;;;;;39.80;43.10;;;;;;4967310;28;19916;-87
2022/08/01 08:42:23;;;;;;;;;;;40.00;43.20;;;;;;4984986;28;20314;-87
2022/08/01 08:44:49;;;;;;;;;;;40.00;42.90;;;;;;4981654;28;20021;-88
2022/08/01 08:47:15;;;;;;;;;;;40.80;42.80;;;;;;4982741;28;20638;-87
2022/08/01 08:49:42;;;;;;;;;;;40.80;40.40;;;;;;4983125;28;21537;-88
2022/08/01 08:52:09;;;;;;;;;;;41.60;41.40;;;;;;4980903;28;19933;-88
2022/08/01 08:54:36;;;;;;;;;;;41.20;40.80;;;;;;4983924;28;19910;-87
2022/08/01 08:57:02;;;;;;;;;;;41.50;41.40;;;;;;4966749;28;20397;-87
2022/08/01 08:59:28;;;;;;;;;;;42.30;41.50;;;;;;4984290;28;20004;-87
2022/08/01 09:01:54;;;;;;;;;;;41.90;41.20;;;;;;4984224;28;19924;-88
2022/08/01 09:04:23;;;;;;;;;;;41.60;41.20;;;;;;4966159;28;20012;-87
2022/08/01 09:06:48;;;;;;;;;;;41.90;40.80;;;;;;4982967;28;19930;-88
2022/08/01 09:09:14;;;;;;;;;;;41.00;40.50;;;;;;4982917;28;19922;-87
2022/08/01 09:11:39;;;;;;;;;;;41.00;40.90;;;;;;4983134;28;19937;-87
2022/08/01 09:14:07;;;;;;;;;;;41.80;41.40;;;;;;4980176;28;19921;-88
2022/08/01 09:16:33;;;;;;;;;;;42.40;40.90;;;;;;4983852;28;19983;-87
2022/08/01 09:19:19;;;;;;;;;;;42.60;39.70;;;;;;4964327;28;19913;-87
2022/08/01 09:21:57;;;;;;;;;;;42.50;39.40;;;;;;4961273;28;19917;-87
2022/08/01 09:24:24;;;;;;;;;;;43.30;40.30;;;;;;4983149;28;19937;-87
2022/08/01 09:26:50;;;;;;;;;;;43.70;40.30;;;;;;4984292;28;19914;-87
2022/08/01 09:29:20;;;;;;;;;;;42.40;39.00;;;;;;4983474;28;20559;-86
2022/08/01 09:31:46;;;;;;;;;;;42.40;40.50;;;;;;4977681;28;19998;-87
2022/08/01 09:34:12;;;;;;;;;;;43.30;39.90;;;;;;4983001;28;19921;-87
2022/08/01 09:36:48;;;;;;;;;;;43.30;38.40;;;;;;4983601;28;20692;-88
2022/08/01 09:39:14;;;;;;;;;;;42.60;38.40;;;;;;4980880;28;19913;-87
2022/08/01 09:41:39;;;;;;;;;;;42.80;39.60;;;;;;4987685;28;20279;-87
2022/08/01 09:44:05;;;;;;;;;;;43.70;37.60;;;;;;4982101;28;19925;-86
2022/08/01 09:46:30;;;;;;;;;;;42.20;37.90;;;;;;4982333;28;19909;-86
2022/08/01 09:48:56;;;;;;;;;;;43.50;39.30;;;;;;4982652;28;19918;-87
2022/08/01 09:51:33;;;;;;;;;;;43.70;38.00;;;;;;4983598;28;19917;-87
2022/08/01 09:53:59;;;;;;;;;;;43.80;37.40;;;;;;4980660;28;20582;-87
2022/08/01 09:56:24;;;;;;;;;;;43.90;38.50;;;;;;4984039;28;19906;-86
2022/08/01 09:58:50;;;;;;;;;;;43.90;37.20;;;;;;4990165;28;20467;-87
2022/08/01 10:01:15;;;;;;;;;;;43.50;38.20;;;;;;4982940;28;19910;-87
2022/08/01 10:03:41;;;;;;;;;;;43.50;37.80;;;;;;4987580;28;19909;-86
2022/08/01 10:06:22;;;;;;;;;;;43.70;37.60;;;;;;4987224;28;19909;-87
2022/08/01 10:08:48;;;;;;;;;;;43.30;38.30;;;;;;4986915;28;19921;-86
2022/08/01 10:11:13;;;;;;;;;;;42.50;37.10;;;;;;4987159;28;19917;-87
2022/08/01 10:13:39;;;;;;;;;;;42.90;37.90;;;;;;4986990;28;19915;-88
2022/08/01 10:16:05;;;;;;;;;;;43.90;38.30;;;;;;4986520;28;20661;-87
2022/08/01 10:18:32;;;;;;;;;;;43.30;38.10;;;;;;4986910;28;19956;-87
2022/08/01 10:20:58;;;;;;;;;;;42.40;37.50;;;;;;4986063;28;19913;-87
2022/08/01 10:23:29;;;;;;;;;;;42.60;39.60;;;;;;4985286;28;19915;-86
2022/08/01 10:25:55;;;;;;;;;;;42.90;38.90;;;;;;4986249;28;19914;-87
2022/08/01 10:28:21;;;;;;;;;;;43.20;39.00;;;;;;4987005;28;20765;-86
2022/08/01 10:30:47;;;;;;;;;;;42.80;38.20;;;;;;4986490;28;19921;-87
2022/08/01 10:33:13;;;;;;;;;;;41.40;38.30;;;;;;4985368;28;19991;-88
2022/08/01 10:35:39;;;;;;;;;;;39.60;39.60;;;;;;4986007;28;19961;-87
2022/08/01 10:38:05;;;;;;;;;;;39.10;40.10;;;;;;4968761;28;19909;-88
2022/08/01 10:40:30;;;;;;;;;;;38.50;41.00;;;;;;4986217;28;20342;-87
2022/08/01 10:42:56;;;;;;;;;;;37.40;41.40;;;;;;4985916;28;19910;-88
2022/08/01 10:45:22;;;;;;;;;;;36.40;42.50;;;;;;4986424;28;19913;-87
2022/08/01 10:47:51;;;;;;;;;;;35.60;42.70;;;;;;4986089;28;19913;-87
2022/08/01 10:50:26;;;;;;;;;;;35.30;43.40;;;;;;4986799;28;20490;-87
2022/08/01 10:53:07;;;;;;;;;;;34.90;42.50;;;;;;4985418;28;19910;-85
2022/08/01 10:55:45;;;;;;;;;;;34.90;41.90;;;;;;4986501;28;19913;-88
2022/08/01 10:58:11;;;;;;;;;;;34.40;42.90;;;;;;4985388;28;20106;-88
2022/08/01 11:00:36;;;;;;;;;;;34.50;42.20;;;;;;4986791;28;20362;-88
2022/08/01 11:03:03;;;;;;;;;;;34.50;42.60;;;;;;4986217;28;20462;-87
2022/08/01 11:05:31;;;;;;;;;;;34.90;43.00;;;;;;4986465;28;19941;-87
2022/08/01 11:07:58;;;;;;;;;;;34.80;42.50;;;;;;4985832;28;19914;-87
2022/08/01 11:10:43;;;;;;;;;;;35.10;43.70;;;;;;4986396;28;19913;-87
2022/08/01 11:13:11;;;;;;;;;;;35.30;42.90;;;;;;4985683;28;19910;-87
2022/08/01 11:15:39;;;;;;;;;;;35.00;43.50;;;;;;4985807;28;19909;-87
2022/08/01 11:18:24;;;;;;;;;;;34.50;42.80;;;;;;4986287;28;19910;-88
2022/08/01 11:21:00;;;;;;;;;;;34.80;42.80;;;;;;4986534;28;19905;-88
2022/08/01 11:23:27;;;;;;;;;;;34.80;42.80;;;;;;4986075;28;19933;-87
2022/08/01 11:25:53;;;;;;;;;;;34.50;42.80;;;;;;4986338;28;19924;-88
2022/08/01 11:28:19;;;;;;;;;;;34.20;40.60;;;;;;4985560;28;20303;-88
2022/08/01 11:30:45;;;;;;;;;;;33.50;41.80;;;;;;4985854;28;19921;-88
2022/08/01 11:33:12;;;;;;;;;;;34.00;42.80;;;;;;4986085;28;20007;-88
2022/08/01 11:35:39;;;;;;;;;;;34.00;42.60;;;;;;4986250;28;19909;-88
2022/08/01 11:38:24;;;;;;;;;;;33.80;41.40;;;;;;4985953;28;19918;-87
2022/08/01 11:41:08;;;;;;;;;;;33.20;41.80;;;;;;4986149;28;19995;-88
2022/08/01 11:43:33;;;;;;;;;;;33.30;41.00;;;;;;4985706;28;19909;-87
2022/08/01 11:45:59;;;;;;;;;;;33.40;42.00;;;;;;4985831;28;19916;-88
2022/08/01 11:48:26;;;;;;;;;;;33.50;42.40;;;;;;4985641;28;20398;-87
2022/08/01 11:50:52;;;;;;;;;;;33.50;42.00;;;;;;4967940;28;19960;-87
2022/08/01 11:53:21;;;;;;;;;;;33.80;43.10;;;;;;4967917;28;20055;-88
2022/08/01 11:55:48;;;;;;;;;;;33.40;40.70;;;;;;4985922;28;20268;-87
2022/08/01 11:58:14;;;;;;;;;;;33.20;41.20;;;;;;4984615;28;19916;-87
2022/08/01 12:00:40;;;;;;;;;;;33.10;42.50;;;;;;4967661;28;19909;-86
2022/08/01 12:03:06;;;;;;;;;;;33.40;43.90;;;;;;4985058;28;20754;-86
2022/08/01 12:05:34;;;;;;;;;;;33.60;43.80;;;;;;4985457;28;20053;-88
2022/08/01 12:08:00;;;;;;;;;;;33.20;42.90;;;;;;4985477;28;19924;-87
2022/08/01 12:10:28;;;;;;;;;;;33.20;44.50;;;;;;4985843;28;19913;-87
2022/08/01 12:12:59;;;;;;;;;;;32.90;43.20;;;;;;4984543;28;19917;-87
2022/08/01 12:15:28;;;;;;;;;;;33.10;44.40;;;;;;4984852;28;19964;-87
2022/08/01 12:17:58;;;;;;;;;;;33.20;44.20;;;;;;4967474;28;19950;-87
2022/08/01 12:20:24;;;;;;;;;;;33.00;43.30;;;;;;4985055;28;19917;-87
2022/08/01 12:22:57;;;;;;;;;;;33.00;44.00;;;;;;4984515;28;19910;-87
2022/08/01 12:25:22;;;;;;;;;;;33.00;44.50;;;;;;4984756;28;19910;-88
2022/08/01 12:27:49;;;;;;;;;;;33.10;44.90;;;;;;4967124;28;19916;-87
2022/08/01 12:30:16;;;;;;;;;;;33.30;44.70;;;;;;4985550;28;20028;-87
2022/08/01 12:32:43;;;;;;;;;;;33.20;44.50;;;;;;4984428;28;20009;-88
2022/08/01 12:35:16;;;;;;;;;;;32.90;44.00;;;;;;4984887;28;19932;-86
2022/08/01 12:37:45;;;;;;;;;;;32.90;44.50;;;;;;4967189;28;19916;-87
2022/08/01 12:40:15;;;;;;;;;;;32.80;44.30;;;;;;4985023;28;19955;-87
2022/08/01 12:42:42;;;;;;;;;;;32.60;44.80;;;;;;4984575;28;19909;-87
2022/08/01 12:45:09;;;;;;;;;;;32.80;46.00;;;;;;4984982;28;20708;-87
2022/08/01 12:47:35;;;;;;;;;;;32.80;46.10;;;;;;4967171;28;19910;-87
2022/08/01 12:50:01;;;;;;;;;;;33.00;47.30;;;;;;4984793;28;19953;-89
2022/08/01 12:52:27;;;;;;;;;;;33.30;45.90;;;;;;4984595;28;20007;-87
2022/08/01 12:55:05;;;;;;;;;;;32.90;44.50;;;;;;4984491;28;20396;-87
2022/08/01 12:57:30;;;;;;;;;;;32.70;45.00;;;;;;4984153;28;19910;-87
2022/08/01 13:00:13;;;;;;;;;;;32.80;44.50;;;;;;4967057;28;19966;-88
2022/08/01 13:02:39;;;;;;;;;;;32.80;45.60;;;;;;4966714;28;19909;-88
2022/08/01 13:05:05;;;;;;;;;;;32.80;45.40;;;;;;4984330;28;19910;-88
2022/08/01 13:07:35;;;;;;;;;;;32.90;44.30;;;;;;4984489;28;19956;-88
2022/08/01 13:10:01;;;;;;;;;;;32.90;43.80;;;;;;4987897;28;20060;-87
2022/08/01 13:12:26;;;;;;;;;;;32.90;44.50;;;;;;4994125;28;19913;-89
2022/08/01 13:14:52;;;;;;;;;;;33.00;44.30;;;;;;4984455;28;19921;-88
2022/08/01 13:17:35;;;;;;;;;;;33.00;45.00;;;;;;4984607;28;19921;-87
2022/08/01 13:20:00;;;;;;;;;;;33.00;44.70;;;;;;4984699;28;19949;-88
2022/08/01 13:22:33;;;;;;;;;;;32.90;44.70;;;;;;4984521;28;19988;-87
2022/08/01 13:25:11;;;;;;;;;;;32.90;43.80;;;;;;4966937;28;19920;-87
2022/08/01 13:27:37;;;;;;;;;;;33.20;44.40;;;;;;4984317;28;19925;-88
2022/08/01 13:30:14;;;;;;;;;;;33.00;45.40;;;;;;4984303;28;20667;-87
2022/08/01 13:32:40;;;;;;;;;;;32.80;44.70;;;;;;4986019;28;19924;-87
2022/08/01 13:35:08;;;;;;;;;;;33.20;45.20;;;;;;4970026;28;19909;-88
2022/08/01 13:37:33;;;;;;;;;;;33.00;45.30;;;;;;4987910;28;20443;-87
2022/08/01 13:39:59;;;;;;;;;;;32.80;44.00;;;;;;4988170;28;19964;-88
2022/08/01 13:42:24;;;;;;;;;;;32.50;44.50;;;;;;4988074;28;19940;-87
2022/08/01 13:44:50;;;;;;;;;;;32.40;43.60;;;;;;4988573;28;19956;-87
2022/08/01 13:47:16;;;;;;;;;;;32.30;42.80;;;;;;4987640;28;20302;-87
2022/08/01 13:49:41;;;;;;;;;;;32.20;43.80;;;;;;4987960;28;19960;-89
2022/08/01 13:52:07;;;;;;;;;;;32.50;43.20;;;;;;4988165;28;20699;-87
2022/08/01 13:54:32;;;;;;;;;;;32.00;43.30;;;;;;4988140;28;19920;-88
2022/08/01 13:56:58;;;;;;;;;;;32.10;43.40;;;;;;4988557;28;20272;-87
2022/08/01 13:59:24;;;;;;;;;;;32.10;43.60;;;;;;4987928;28;19944;-87
2022/08/01 14:01:49;;;;;;;;;;;32.00;44.80;;;;;;4987713;28;19996;-88
2022/08/01 14:04:15;;;;;;;;;;;32.20;46.60;;;;;;4970521;28;19914;-89
2022/08/01 14:06:41;;;;;;;;;;;32.20;46.10;;;;;;4987573;28;19910;-87
2022/08/01 14:09:07;;;;;;;;;;;32.50;46.70;;;;;;4987606;28;19928;-87
2022/08/01 14:11:33;;;;;;;;;;;32.80;46.10;;;;;;4987314;28;20449;-86
2022/08/01 14:13:58;;;;;;;;;;;32.80;45.90;;;;;;4987837;28;19913;-88
2022/08/01 14:16:24;;;;;;;;;;;32.70;45.10;;;;;;4987607;28;19945;-89